sensor_id;sensor_type;location;lat;lon;timestamp;pressure;altitude;pressure_sealevel;temperature;humidity
16255;BME280;8235;52.198;9.904;2023-01-29T00:01:42;102087.78;;;-0.57;84.23
16255;BME280;8235;52.198;9.904;2023-01-29T00:04:09;102082.56;;;-0.55;84.02
16255;BME280;8235;52.198;9.904;2023-01-29T00:06:36;102079.06;;;-0.51;84.08
16255;BME280;8235;52.198;9.904;2023-01-29T00:09:03;102084.28;;;-0.51;84.06
16255;BME280;8235;52.198;9.904;2023-01-29T00:11:30;102069.47;;;-0.52;83.83
16255;BME280;8235;52.198;9.904;2023-01-29T00:13:57;102066.00;;;-0.50;83.81
16255;BME280;8235;52.198;9.904;2023-01-29T00:16:23;102070.34;;;-0.49;83.58
16255;BME280;8235;52.198;9.904;2023-01-29T00:18:50;102070.38;;;-0.47;83.82
16255;BME280;8235;52.198;9.904;2023-01-29T00:21:19;102066.88;;;-0.46;83.65
16255;BME280;8235;52.198;9.904;2023-01-29T00:23:46;102061.66;;;-0.43;83.61
16255;BME280;8235;52.198;9.904;2023-01-29T00:26:13;102066.91;;;-0.42;83.85
16255;BME280;8235;52.198;9.904;2023-01-29T00:28:40;102063.44;;;-0.41;83.77
16255;BME280;8235;52.198;9.904;2023-01-29T00:31:07;102064.31;;;-0.39;83.56
16255;BME280;8235;52.198;9.904;2023-01-29T00:33:34;102061.72;;;-0.37;83.46
16255;BME280;8235;52.198;9.904;2023-01-29T00:36:02;102065.19;;;-0.37;83.55
16255;BME280;8235;52.198;9.904;2023-01-29T00:38:30;102066.94;;;-0.37;83.68
16255;BME280;8235;52.198;9.904;2023-01-29T00:40:57;102066.03;;;-0.35;83.42
16255;BME280;8235;52.198;9.904;2023-01-29T00:43:42;102061.69;;;-0.32;83.52
16255;BME280;8235;52.198;9.904;2023-01-29T00:46:25;102065.19;;;-0.32;83.43
16255;BME280;8235;52.198;9.904;2023-01-29T00:48:52;102056.47;;;-0.32;83.49
16255;BME280;8235;52.198;9.904;2023-01-29T00:51:18;102052.97;;;-0.33;83.30
16255;BME280;8235;52.198;9.904;2023-01-29T00:53:46;102067.81;;;-0.32;83.30
16255;BME280;8235;52.198;9.904;2023-01-29T00:56:13;102059.97;;;-0.32;83.31
16255;BME280;8235;52.198;9.904;2023-01-29T00:58:39;102051.25;;;-0.31;83.11
16255;BME280;8235;52.198;9.904;2023-01-29T01:01:05;102057.34;;;-0.32;83.12
16255;BME280;8235;52.198;9.904;2023-01-29T01:03:32;102066.06;;;-0.31;83.00
16255;BME280;8235;52.198;9.904;2023-01-29T01:06:03;102065.19;;;-0.32;83.06
16255;BME280;8235;52.198;9.904;2023-01-29T01:08:30;102065.19;;;-0.32;82.84
16255;BME280;8235;52.198;9.904;2023-01-29T01:11:16;102066.94;;;-0.32;83.21
16255;BME280;8235;52.198;9.904;2023-01-29T01:13:42;102068.69;;;-0.33;83.09
16255;BME280;8235;52.198;9.904;2023-01-29T01:16:09;102074.78;;;-0.32;83.14
16255;BME280;8235;52.198;9.904;2023-01-29T01:18:36;102071.28;;;-0.33;82.98
16255;BME280;8235;52.198;9.904;2023-01-29T01:21:03;102066.91;;;-0.34;83.00
16255;BME280;8235;52.198;9.904;2023-01-29T01:23:30;102061.69;;;-0.34;82.72
16255;BME280;8235;52.198;9.904;2023-01-29T01:25:57;102061.72;;;-0.37;82.70
16255;BME280;8235;52.198;9.904;2023-01-29T01:28:24;102055.59;;;-0.38;82.90
16255;BME280;8235;52.198;9.904;2023-01-29T01:30:51;102050.34;;;-0.41;83.04
16255;BME280;8235;52.198;9.904;2023-01-29T01:33:17;102051.19;;;-0.43;82.75
16255;BME280;8235;52.198;9.904;2023-01-29T01:35:44;102044.22;;;-0.44;82.84
16255;BME280;8235;52.198;9.904;2023-01-29T01:38:11;102038.97;;;-0.47;83.05
16255;BME280;8235;52.198;9.904;2023-01-29T01:40:43;102034.59;;;-0.48;82.71
16255;BME280;8235;52.198;9.904;2023-01-29T01:43:10;102031.09;;;-0.49;82.70
16255;BME280;8235;52.198;9.904;2023-01-29T01:45:38;102024.97;;;-0.52;82.88
16255;BME280;8235;52.198;9.904;2023-01-29T01:48:06;102018.00;;;-0.53;83.16
16255;BME280;8235;52.198;9.904;2023-01-29T01:50:40;102023.22;;;-0.53;83.16
16255;BME280;8235;52.198;9.904;2023-01-29T01:53:10;102013.63;;;-0.53;82.94
16255;BME280;8235;52.198;9.904;2023-01-29T01:55:39;102020.59;;;-0.53;82.91
16255;BME280;8235;52.198;9.904;2023-01-29T01:58:12;102023.22;;;-0.53;83.00
16255;BME280;8235;52.198;9.904;2023-01-29T02:00:42;102014.53;;;-0.54;82.91
16255;BME280;8235;52.198;9.904;2023-01-29T02:03:09;102016.28;;;-0.54;82.95
16255;BME280;8235;52.198;9.904;2023-01-29T02:05:54;102005.81;;;-0.54;82.90
16255;BME280;8235;52.198;9.904;2023-01-29T02:08:46;102005.81;;;-0.54;82.78
16255;BME280;8235;52.198;9.904;2023-01-29T02:11:34;102018.00;;;-0.56;82.88
16255;BME280;8235;52.198;9.904;2023-01-29T02:14:01;102019.75;;;-0.58;82.92
16255;BME280;8235;52.198;9.904;2023-01-29T02:16:29;102019.75;;;-0.58;82.88
16255;BME280;8235;52.198;9.904;2023-01-29T02:18:56;102025.84;;;-0.59;82.89
16255;BME280;8235;52.198;9.904;2023-01-29T02:21:41;102029.31;;;-0.62;83.01
16255;BME280;8235;52.198;9.904;2023-01-29T02:24:46;102032.78;;;-0.64;82.81
16255;BME280;8235;52.198;9.904;2023-01-29T02:27:20;102035.38;;;-0.66;82.93
16255;BME280;8235;52.198;9.904;2023-01-29T02:29:57;102033.66;;;-0.65;82.87
16255;BME280;8235;52.198;9.904;2023-01-29T02:32:30;102027.53;;;-0.67;82.96
16255;BME280;8235;52.198;9.904;2023-01-29T02:35:09;102041.47;;;-0.67;83.22
16255;BME280;8235;52.198;9.904;2023-01-29T02:37:58;102038.84;;;-0.68;82.96
16255;BME280;8235;52.198;9.904;2023-01-29T02:40:30;102050.19;;;-0.71;82.88
16255;BME280;8235;52.198;9.904;2023-01-29T02:43:06;102044.06;;;-0.72;82.89
16255;BME280;8235;52.198;9.904;2023-01-29T02:45:43;102052.78;;;-0.71;83.24
16255;BME280;8235;52.198;9.904;2023-01-29T02:48:16;102053.69;;;-0.72;83.44
16255;BME280;8235;52.198;9.904;2023-01-29T02:50:47;102051.94;;;-0.73;83.20
16255;BME280;8235;52.198;9.904;2023-01-29T02:53:16;102048.47;;;-0.72;83.42
16255;BME280;8235;52.198;9.904;2023-01-29T02:55:48;102058.91;;;-0.71;83.34
16255;BME280;8235;52.198;9.904;2023-01-29T02:58:21;102058.03;;;-0.70;83.53
16255;BME280;8235;52.198;9.904;2023-01-29T03:00:55;102060.66;;;-0.70;83.66
16255;BME280;8235;52.198;9.904;2023-01-29T03:03:26;102063.28;;;-0.70;83.58
16255;BME280;8235;52.198;9.904;2023-01-29T03:05:58;102065.91;;;-0.68;83.52
16255;BME280;8235;52.198;9.904;2023-01-29T03:08:30;102062.41;;;-0.67;83.72
16255;BME280;8235;52.198;9.904;2023-01-29T03:11:07;102043.22;;;-0.67;83.71
16255;BME280;8235;52.198;9.904;2023-01-29T03:13:41;102051.94;;;-0.67;83.54
16255;BME280;8235;52.198;9.904;2023-01-29T03:16:15;102048.47;;;-0.66;83.77
16255;BME280;8235;52.198;9.904;2023-01-29T03:18:48;102031.03;;;-0.67;83.54
16255;BME280;8235;52.198;9.904;2023-01-29T03:21:19;102033.66;;;-0.65;83.70
16255;BME280;8235;52.198;9.904;2023-01-29T03:24:05;102030.16;;;-0.67;83.39
16255;BME280;8235;52.198;9.904;2023-01-29T03:26:51;102035.38;;;-0.67;83.85
16255;BME280;8235;52.198;9.904;2023-01-29T03:29:37;102022.31;;;-0.67;83.93
16255;BME280;8235;52.198;9.904;2023-01-29T03:32:27;102016.22;;;-0.65;83.97
16255;BME280;8235;52.198;9.904;2023-01-29T03:34:57;102021.44;;;-0.65;84.03
16255;BME280;8235;52.198;9.904;2023-01-29T03:37:31;102031.06;;;-0.62;83.95
16255;BME280;8235;52.198;9.904;2023-01-29T03:40:00;102031.94;;;-0.60;83.97
16255;BME280;8235;52.198;9.904;2023-01-29T03:42:31;102038.03;;;-0.60;83.95
16255;BME280;8235;52.198;9.904;2023-01-29T03:45:06;102026.72;;;-0.59;84.02
16255;BME280;8235;52.198;9.904;2023-01-29T03:47:42;102025.84;;;-0.58;84.14
16255;BME280;8235;52.198;9.904;2023-01-29T03:50:19;102019.75;;;-0.57;84.02
16255;BME280;8235;52.198;9.904;2023-01-29T03:52:55;102023.25;;;-0.55;83.83
16255;BME280;8235;52.198;9.904;2023-01-29T03:55:33;102019.75;;;-0.52;84.03
16255;BME280;8235;52.198;9.904;2023-01-29T03:58:05;102018.00;;;-0.50;84.16
16255;BME280;8235;52.198;9.904;2023-01-29T04:00:37;102011.03;;;-0.50;84.06
16255;BME280;8235;52.198;9.904;2023-01-29T04:03:08;102000.56;;;-0.48;83.91
16255;BME280;8235;52.198;9.904;2023-01-29T04:05:42;102008.44;;;-0.47;83.67
16255;BME280;8235;52.198;9.904;2023-01-29T04:08:15;102004.94;;;-0.46;83.94
16255;BME280;8235;52.198;9.904;2023-01-29T04:10:43;101997.97;;;-0.45;84.25
16255;BME280;8235;52.198;9.904;2023-01-29T04:13:11;101997.97;;;-0.44;83.98
16255;BME280;8235;52.198;9.904;2023-01-29T04:15:43;101994.50;;;-0.43;84.04
16255;BME280;8235;52.198;9.904;2023-01-29T04:18:12;101981.41;;;-0.43;84.26
16255;BME280;8235;52.198;9.904;2023-01-29T04:20:39;101977.06;;;-0.42;83.99
16255;BME280;8235;52.198;9.904;2023-01-29T04:23:16;101969.19;;;-0.42;84.05
16255;BME280;8235;52.198;9.904;2023-01-29T04:25:52;101964.84;;;-0.42;84.03
16255;BME280;8235;52.198;9.904;2023-01-29T04:28:22;101962.22;;;-0.40;83.67
16255;BME280;8235;52.198;9.904;2023-01-29T04:30:53;101963.09;;;-0.40;83.78
16255;BME280;8235;52.198;9.904;2023-01-29T04:33:29;101969.22;;;-0.39;83.79
16255;BME280;8235;52.198;9.904;2023-01-29T04:36:14;101959.63;;;-0.39;83.27
16255;BME280;8235;52.198;9.904;2023-01-29T04:38:52;101962.25;;;-0.37;83.48
16255;BME280;8235;52.198;9.904;2023-01-29T04:41:24;101956.09;;;-0.35;83.61
16255;BME280;8235;52.198;9.904;2023-01-29T04:43:58;101943.03;;;-0.35;83.71
16255;BME280;8235;52.198;9.904;2023-01-29T04:46:48;101945.66;;;-0.31;83.61
16255;BME280;8235;52.198;9.904;2023-01-29T04:49:28;101932.56;;;-0.30;83.16
16255;BME280;8235;52.198;9.904;2023-01-29T04:52:02;101920.34;;;-0.29;83.40
16255;BME280;8235;52.198;9.904;2023-01-29T04:54:41;101911.63;;;-0.30;82.94
16255;BME280;8235;52.198;9.904;2023-01-29T04:57:16;101910.75;;;-0.29;83.23
16255;BME280;8235;52.198;9.904;2023-01-29T04:59:47;101910.75;;;-0.27;83.23
16255;BME280;8235;52.198;9.904;2023-01-29T05:02:16;101910.78;;;-0.26;83.25
16255;BME280;8235;52.198;9.904;2023-01-29T05:04:46;101920.34;;;-0.28;83.11
16255;BME280;8235;52.198;9.904;2023-01-29T05:07:16;101923.84;;;-0.26;83.07
16255;BME280;8235;52.198;9.904;2023-01-29T05:09:44;101926.47;;;-0.24;83.11
16255;BME280;8235;52.198;9.904;2023-01-29T05:12:13;101920.38;;;-0.25;82.93
16255;BME280;8235;52.198;9.904;2023-01-29T05:14:42;101927.34;;;-0.24;82.94
16255;BME280;8235;52.198;9.904;2023-01-29T05:17:13;101924.75;;;-0.24;83.20
16255;BME280;8235;52.198;9.904;2023-01-29T05:19:40;101919.50;;;-0.22;82.93
16255;BME280;8235;52.198;9.904;2023-01-29T05:22:10;101925.63;;;-0.22;82.47
16255;BME280;8235;52.198;9.904;2023-01-29T05:24:38;101927.38;;;-0.21;82.92
16255;BME280;8235;52.198;9.904;2023-01-29T05:27:05;101926.50;;;-0.21;82.82
16255;BME280;8235;52.198;9.904;2023-01-29T05:29:49;101928.22;;;-0.20;82.70
16255;BME280;8235;52.198;9.904;2023-01-29T05:32:16;101929.09;;;-0.20;82.46
16255;BME280;8235;52.198;9.904;2023-01-29T05:34:42;101926.50;;;-0.18;82.68
16255;BME280;8235;52.198;9.904;2023-01-29T05:37:10;101922.97;;;-0.17;82.47
16255;BME280;8235;52.198;9.904;2023-01-29T05:39:37;101917.75;;;-0.17;82.65
16255;BME280;8235;52.198;9.904;2023-01-29T05:42:03;101928.22;;;-0.17;82.75
16255;BME280;8235;52.198;9.904;2023-01-29T05:44:30;101934.31;;;-0.17;82.32
16255;BME280;8235;52.198;9.904;2023-01-29T05:46:56;101936.94;;;-0.17;82.43
16255;BME280;8235;52.198;9.904;2023-01-29T05:49:23;101938.69;;;-0.16;82.53
16255;BME280;8235;52.198;9.904;2023-01-29T05:51:49;101945.69;;;-0.15;82.31
16255;BME280;8235;52.198;9.904;2023-01-29T05:54:17;101936.94;;;-0.15;82.11
16255;BME280;8235;52.198;9.904;2023-01-29T05:56:43;101933.47;;;-0.19;82.23
16255;BME280;8235;52.198;9.904;2023-01-29T05:59:10;101943.03;;;-0.18;82.18
16255;BME280;8235;52.198;9.904;2023-01-29T06:01:36;101941.34;;;-0.19;82.43
16255;BME280;8235;52.198;9.904;2023-01-29T06:04:03;101943.91;;;-0.17;82.04
16255;BME280;8235;52.198;9.904;2023-01-29T06:06:29;101954.41;;;-0.17;82.00
16255;BME280;8235;52.198;9.904;2023-01-29T06:08:56;101943.03;;;-0.18;81.86
16255;BME280;8235;52.198;9.904;2023-01-29T06:11:24;101956.13;;;-0.18;82.06
16255;BME280;8235;52.198;9.904;2023-01-29T06:13:51;101955.28;;;-0.17;82.09
16255;BME280;8235;52.198;9.904;2023-01-29T06:16:17;101951.78;;;-0.17;82.10
16255;BME280;8235;52.198;9.904;2023-01-29T06:18:43;101955.28;;;-0.17;81.98
16255;BME280;8235;52.198;9.904;2023-01-29T06:21:12;101960.53;;;-0.18;81.95
16255;BME280;8235;52.198;9.904;2023-01-29T06:23:39;101961.38;;;-0.16;82.02
16255;BME280;8235;52.198;9.904;2023-01-29T06:26:08;101953.53;;;-0.16;81.83
16255;BME280;8235;52.198;9.904;2023-01-29T06:28:37;101953.53;;;-0.15;81.88
16255;BME280;8235;52.198;9.904;2023-01-29T06:31:05;101943.94;;;-0.14;81.97
16255;BME280;8235;52.198;9.904;2023-01-29T06:33:32;101936.09;;;-0.13;81.63
16255;BME280;8235;52.198;9.904;2023-01-29T06:36:00;101938.69;;;-0.13;81.31
16255;BME280;8235;52.198;9.904;2023-01-29T06:38:28;101943.94;;;-0.13;81.65
16255;BME280;8235;52.198;9.904;2023-01-29T06:40:55;101941.31;;;-0.13;81.79
16255;BME280;8235;52.198;9.904;2023-01-29T06:43:22;101936.09;;;-0.13;81.58
16255;BME280;8235;52.198;9.904;2023-01-29T06:45:51;101950.91;;;-0.12;81.59
16255;BME280;8235;52.198;9.904;2023-01-29T06:48:18;101953.53;;;-0.12;81.54
16255;BME280;8235;52.198;9.904;2023-01-29T06:50:45;101947.44;;;-0.11;81.65
16255;BME280;8235;52.198;9.904;2023-01-29T06:53:13;101950.91;;;-0.12;81.65
16255;BME280;8235;52.198;9.904;2023-01-29T06:55:40;101952.66;;;-0.11;81.46
16255;BME280;8235;52.198;9.904;2023-01-29T06:58:07;101953.53;;;-0.10;81.43
16255;BME280;8235;52.198;9.904;2023-01-29T07:00:34;101940.44;;;-0.13;81.54
16255;BME280;8235;52.198;9.904;2023-01-29T07:03:03;101941.31;;;-0.13;81.30
16255;BME280;8235;52.198;9.904;2023-01-29T07:05:30;101937.84;;;-0.09;81.47
16255;BME280;8235;52.198;9.904;2023-01-29T07:07:57;101967.50;;;-0.10;81.36
16255;BME280;8235;52.198;9.904;2023-01-29T07:10:23;101976.25;;;-0.11;81.45
16255;BME280;8235;52.198;9.904;2023-01-29T07:12:50;101969.25;;;-0.10;81.22
16255;BME280;8235;52.198;9.904;2023-01-29T07:15:17;101968.38;;;-0.09;81.38
16255;BME280;8235;52.198;9.904;2023-01-29T07:17:54;101972.75;;;-0.08;81.32
16255;BME280;8235;52.198;9.904;2023-01-29T07:20:23;101986.72;;;-0.08;81.35
16255;BME280;8235;52.198;9.904;2023-01-29T07:22:49;101979.75;;;-0.07;81.35
16255;BME280;8235;52.198;9.904;2023-01-29T07:25:16;101979.75;;;-0.06;81.13
16255;BME280;8235;52.198;9.904;2023-01-29T07:27:42;101985.00;;;-0.04;81.11
16255;BME280;8235;52.198;9.904;2023-01-29T07:30:10;101981.50;;;-0.05;81.08
16255;BME280;8235;52.198;9.904;2023-01-29T07:32:36;101976.25;;;-0.05;81.14
16255;BME280;8235;52.198;9.904;2023-01-29T07:35:03;101978.00;;;-0.07;80.88
16255;BME280;8235;52.198;9.904;2023-01-29T07:37:31;101961.41;;;-0.07;81.32
16255;BME280;8235;52.198;9.904;2023-01-29T07:39:58;101966.66;;;-0.07;81.18
16255;BME280;8235;52.198;9.904;2023-01-29T07:42:24;101965.78;;;-0.08;81.28
16255;BME280;8235;52.198;9.904;2023-01-29T07:44:51;101950.06;;;-0.06;81.34
16255;BME280;8235;52.198;9.904;2023-01-29T07:47:17;101932.59;;;-0.07;81.20
16255;BME280;8235;52.198;9.904;2023-01-29T07:49:44;101946.56;;;-0.07;81.51
16255;BME280;8235;52.198;9.904;2023-01-29T07:52:10;101936.09;;;-0.10;81.54
16255;BME280;8235;52.198;9.904;2023-01-29T07:54:38;101950.94;;;-0.10;81.54
16255;BME280;8235;52.198;9.904;2023-01-29T07:57:04;101937.84;;;-0.09;81.39
16255;BME280;8235;52.198;9.904;2023-01-29T07:59:31;101949.19;;;-0.10;81.38
16255;BME280;8235;52.198;9.904;2023-01-29T08:01:57;101936.09;;;-0.10;81.77
16255;BME280;8235;52.198;9.904;2023-01-29T08:04:24;101932.59;;;-0.09;81.64
16255;BME280;8235;52.198;9.904;2023-01-29T08:06:50;101918.63;;;-0.08;81.60
16255;BME280;8235;52.198;9.904;2023-01-29T08:09:17;101904.66;;;-0.07;81.91
16255;BME280;8235;52.198;9.904;2023-01-29T08:11:45;101884.59;;;-0.05;81.69
16255;BME280;8235;52.198;9.904;2023-01-29T08:14:11;101889.84;;;-0.05;81.99
16255;BME280;8235;52.198;9.904;2023-01-29T08:16:38;101895.09;;;-0.02;81.96
16255;BME280;8235;52.198;9.904;2023-01-29T08:19:04;101896.81;;;-0.01;82.12
16255;BME280;8235;52.198;9.904;2023-01-29T08:21:30;101894.19;;;0.03;82.18
16255;BME280;8235;52.198;9.904;2023-01-29T08:24:12;101898.53;;;0.05;82.28
16255;BME280;8235;52.198;9.904;2023-01-29T08:26:39;101911.66;;;0.07;82.46
16255;BME280;8235;52.198;9.904;2023-01-29T08:29:07;101902.91;;;0.08;82.57
16255;BME280;8235;52.198;9.904;2023-01-29T08:31:33;101902.06;;;0.10;82.59
16255;BME280;8235;52.198;9.904;2023-01-29T08:34:00;101896.81;;;0.13;82.42
16255;BME280;8235;52.198;9.904;2023-01-29T08:36:26;101903.81;;;0.14;82.78
16255;BME280;8235;52.198;9.904;2023-01-29T08:38:53;101899.41;;;0.21;82.65
16255;BME280;8235;52.198;9.904;2023-01-29T08:41:19;101888.94;;;0.24;82.75
16255;BME280;8235;52.198;9.904;2023-01-29T08:43:46;101902.03;;;0.24;82.81
16255;BME280;8235;52.198;9.904;2023-01-29T08:46:14;101888.06;;;0.25;82.78
16255;BME280;8235;52.198;9.904;2023-01-29T08:48:40;101900.28;;;0.26;82.74
16255;BME280;8235;52.198;9.904;2023-01-29T08:51:11;101900.28;;;0.26;82.83
16255;BME280;8235;52.198;9.904;2023-01-29T08:53:38;101894.19;;;0.27;82.91
16255;BME280;8235;52.198;9.904;2023-01-29T08:56:07;101895.91;;;0.29;82.95
16255;BME280;8235;52.198;9.904;2023-01-29T08:58:41;101895.06;;;0.32;82.95
16255;BME280;8235;52.198;9.904;2023-01-29T09:01:15;101888.94;;;0.33;82.93
16255;BME280;8235;52.198;9.904;2023-01-29T09:03:41;101890.69;;;0.34;83.30
16255;BME280;8235;52.198;9.904;2023-01-29T09:06:12;101899.41;;;0.33;82.96
16255;BME280;8235;52.198;9.904;2023-01-29T09:08:39;101893.31;;;0.32;83.31
16255;BME280;8235;52.198;9.904;2023-01-29T09:11:09;101887.16;;;0.37;83.22
16255;BME280;8235;52.198;9.904;2023-01-29T09:13:38;101884.53;;;0.37;83.31
16255;BME280;8235;52.198;9.904;2023-01-29T09:16:05;101874.06;;;0.38;83.36
16255;BME280;8235;52.198;9.904;2023-01-29T09:18:36;101874.94;;;0.37;83.17
16255;BME280;8235;52.198;9.904;2023-01-29T09:21:03;101879.31;;;0.35;83.47
16255;BME280;8235;52.198;9.904;2023-01-29T09:23:30;101879.28;;;0.40;83.38
16255;BME280;8235;52.198;9.904;2023-01-29T09:25:57;101867.06;;;0.40;83.42
16255;BME280;8235;52.198;9.904;2023-01-29T09:28:24;101867.94;;;0.41;83.49
16255;BME280;8235;52.198;9.904;2023-01-29T09:30:52;101849.59;;;0.41;83.73
16255;BME280;8235;52.198;9.904;2023-01-29T09:33:19;101851.34;;;0.43;83.53
16255;BME280;8235;52.198;9.904;2023-01-29T09:35:50;101835.63;;;0.45;83.74
16255;BME280;8235;52.198;9.904;2023-01-29T09:38:19;101848.72;;;0.46;83.78
16255;BME280;8235;52.198;9.904;2023-01-29T09:40:51;101835.59;;;0.46;84.00
16255;BME280;8235;52.198;9.904;2023-01-29T09:43:22;101836.44;;;0.54;83.66
16255;BME280;8235;52.198;9.904;2023-01-29T09:45:54;101821.63;;;0.49;83.98
16255;BME280;8235;52.198;9.904;2023-01-29T09:48:26;101840.84;;;0.52;84.07
16255;BME280;8235;52.198;9.904;2023-01-29T09:50:57;101825.94;;;0.54;84.11
16255;BME280;8235;52.198;9.904;2023-01-29T09:53:28;101824.19;;;0.56;84.35
16255;BME280;8235;52.198;9.904;2023-01-29T09:56:00;101819.81;;;0.58;84.65
16255;BME280;8235;52.198;9.904;2023-01-29T09:58:32;101818.94;;;0.61;84.58
16255;BME280;8235;52.198;9.904;2023-01-29T10:01:11;101808.47;;;0.62;84.48
16255;BME280;8235;52.198;9.904;2023-01-29T10:04:05;101807.56;;;0.66;84.35
16255;BME280;8235;52.198;9.904;2023-01-29T10:06:45;101818.94;;;0.70;84.77
16255;BME280;8235;52.198;9.904;2023-01-29T10:12:51;101812.75;;;0.76;84.62
16255;BME280;8235;52.198;9.904;2023-01-29T10:18:54;101811.88;;;0.83;84.83
16255;BME280;8235;52.198;9.904;2023-01-29T10:21:51;101812.75;;;0.83;84.55
16255;BME280;8235;52.198;9.904;2023-01-29T10:24:32;101811.84;;;0.87;84.73
16255;BME280;8235;52.198;9.904;2023-01-29T10:27:12;101809.19;;;0.90;84.90
16255;BME280;8235;52.198;9.904;2023-01-29T10:29:43;101813.56;;;0.91;84.54
16255;BME280;8235;52.198;9.904;2023-01-29T10:32:13;101812.66;;;0.95;84.31
16255;BME280;8235;52.198;9.904;2023-01-29T10:34:42;101807.41;;;0.97;84.32
16255;BME280;8235;52.198;9.904;2023-01-29T10:40:53;101813.50;;;1.07;83.67
16255;BME280;8235;52.198;9.904;2023-01-29T10:43:29;101808.22;;;1.10;83.48
16255;BME280;8235;52.198;9.904;2023-01-29T10:46:13;101825.69;;;1.09;83.26
16255;BME280;8235;52.198;9.904;2023-01-29T10:48:52;101819.56;;;1.12;83.32
16255;BME280;8235;52.198;9.904;2023-01-29T10:51:32;101816.06;;;1.16;83.28
16255;BME280;8235;52.198;9.904;2023-01-29T10:54:16;101815.16;;;1.20;83.24
16255;BME280;8235;52.198;9.904;2023-01-29T10:56:55;101806.41;;;1.21;82.55
16255;BME280;8235;52.198;9.904;2023-01-29T10:59:38;101804.66;;;1.21;82.36
16255;BME280;8235;52.198;9.904;2023-01-29T11:02:15;101793.28;;;1.25;82.05
16255;BME280;8235;52.198;9.904;2023-01-29T11:04:47;101787.09;;;1.26;82.26
16255;BME280;8235;52.198;9.904;2023-01-29T11:07:15;101776.59;;;1.29;81.96
16255;BME280;8235;52.198;9.904;2023-01-29T11:09:50;101771.34;;;1.29;81.74
16255;BME280;8235;52.198;9.904;2023-01-29T11:12:22;101773.06;;;1.35;81.71
16255;BME280;8235;52.198;9.904;2023-01-29T11:14:57;101756.44;;;1.34;81.71
16255;BME280;8235;52.198;9.904;2023-01-29T11:17:26;101748.53;;;1.39;81.59
16255;BME280;8235;52.198;9.904;2023-01-29T11:19:53;101749.41;;;1.41;80.50
16255;BME280;8235;52.198;9.904;2023-01-29T11:22:22;101744.13;;;1.43;80.40
16255;BME280;8235;52.198;9.904;2023-01-29T11:25:06;101745.03;;;1.40;80.65
16255;BME280;8235;52.198;9.904;2023-01-29T11:27:41;101736.28;;;1.43;80.76
16255;BME280;8235;52.198;9.904;2023-01-29T11:30:14;101737.97;;;1.45;80.43
16255;BME280;8235;52.198;9.904;2023-01-29T11:32:42;101723.94;;;1.48;80.32
16255;BME280;8235;52.198;9.904;2023-01-29T11:35:19;101721.34;;;1.46;80.30
16255;BME280;8235;52.198;9.904;2023-01-29T11:37:46;101722.22;;;1.45;79.31
16255;BME280;8235;52.198;9.904;2023-01-29T11:40:38;101723.06;;;1.47;79.85
16255;BME280;8235;52.198;9.904;2023-01-29T11:43:18;101730.06;;;1.50;79.50
16255;BME280;8235;52.198;9.904;2023-01-29T11:45:47;101717.81;;;1.49;78.93
16255;BME280;8235;52.198;9.904;2023-01-29T11:48:15;101720.41;;;1.53;78.87
16255;BME280;8235;52.198;9.904;2023-01-29T11:50:49;101716.03;;;1.54;78.75
16255;BME280;8235;52.198;9.904;2023-01-29T11:53:22;101719.50;;;1.56;79.26
16255;BME280;8235;52.198;9.904;2023-01-29T11:55:50;101715.13;;;1.58;78.94
16255;BME280;8235;52.198;9.904;2023-01-29T11:58:23;101707.25;;;1.58;78.33
16255;BME280;8235;52.198;9.904;2023-01-29T12:00:52;101700.25;;;1.58;78.89
16255;BME280;8235;52.198;9.904;2023-01-29T12:03:28;101694.13;;;1.58;79.07
16255;BME280;8235;52.198;9.904;2023-01-29T12:05:58;101694.13;;;1.58;78.29
16255;BME280;8235;52.198;9.904;2023-01-29T12:08:36;101694.09;;;1.61;78.86
16255;BME280;8235;52.198;9.904;2023-01-29T12:11:09;101693.25;;;1.59;78.41
16255;BME280;8235;52.198;9.904;2023-01-29T12:13:36;101687.94;;;1.62;78.10
16255;BME280;8235;52.198;9.904;2023-01-29T12:16:20;101686.16;;;1.65;77.88
16255;BME280;8235;52.198;9.904;2023-01-29T12:18:53;101672.09;;;1.69;78.02
16255;BME280;8235;52.198;9.904;2023-01-29T12:21:27;101669.47;;;1.71;78.19
16255;BME280;8235;52.198;9.904;2023-01-29T12:24:00;101658.06;;;1.73;78.42
16255;BME280;8235;52.198;9.904;2023-01-29T12:26:31;101662.41;;;1.76;77.75
16255;BME280;8235;52.198;9.904;2023-01-29T12:29:15;101654.44;;;1.82;78.14
16255;BME280;8235;52.198;9.904;2023-01-29T12:31:50;101653.53;;;1.86;77.58
16255;BME280;8235;52.198;9.904;2023-01-29T12:34:23;101650.84;;;1.91;77.17
16255;BME280;8235;52.198;9.904;2023-01-29T12:36:57;101654.41;;;1.87;76.58
16255;BME280;8235;52.198;9.904;2023-01-29T12:39:27;101647.38;;;1.89;76.91
16255;BME280;8235;52.198;9.904;2023-01-29T12:41:56;101647.41;;;1.87;77.23
16255;BME280;8235;52.198;9.904;2023-01-29T12:44:29;101658.75;;;1.89;76.96
16255;BME280;8235;52.198;9.904;2023-01-29T12:47:00;101666.63;;;1.91;76.56
16255;BME280;8235;52.198;9.904;2023-01-29T12:49:31;101657.84;;;1.92;76.08
16255;BME280;8235;52.198;9.904;2023-01-29T12:52:03;101656.09;;;1.92;76.54
16255;BME280;8235;52.198;9.904;2023-01-29T12:54:37;101651.72;;;1.91;76.08
16255;BME280;8235;52.198;9.904;2023-01-29T12:57:09;101655.22;;;1.93;76.43
16255;BME280;8235;52.198;9.904;2023-01-29T12:59:43;101656.09;;;1.92;76.41
16255;BME280;8235;52.198;9.904;2023-01-29T13:02:17;101648.22;;;1.91;76.19
16255;BME280;8235;52.198;9.904;2023-01-29T13:04:54;101657.88;;;1.90;76.72
16255;BME280;8235;52.198;9.904;2023-01-29T13:07:25;101660.47;;;1.93;76.18
16255;BME280;8235;52.198;9.904;2023-01-29T13:10:00;101647.34;;;1.93;76.84
16255;BME280;8235;52.198;9.904;2023-01-29T13:12:30;101643.84;;;1.93;76.83
16255;BME280;8235;52.198;9.904;2023-01-29T13:15:01;101642.06;;;1.93;76.80
16255;BME280;8235;52.198;9.904;2023-01-29T13:17:35;101638.50;;;1.97;76.84
16255;BME280;8235;52.198;9.904;2023-01-29T13:20:09;101638.50;;;1.97;76.68
16255;BME280;8235;52.198;9.904;2023-01-29T13:22:39;101627.16;;;1.95;76.46
16255;BME280;8235;52.198;9.904;2023-01-29T13:25:14;101621.91;;;1.97;76.63
16255;BME280;8235;52.198;9.904;2023-01-29T13:27:42;101607.03;;;1.96;76.72
16255;BME280;8235;52.198;9.904;2023-01-29T13:30:23;101609.66;;;1.94;76.76
16255;BME280;8235;52.198;9.904;2023-01-29T13:32:50;101603.56;;;1.92;76.78
16255;BME280;8235;52.198;9.904;2023-01-29T13:35:20;101600.06;;;1.92;76.65
16255;BME280;8235;52.198;9.904;2023-01-29T13:37:49;101599.19;;;1.91;76.73